sensor_id;sensor_type;location;lat;lon;timestamp;P1;durP1;ratioP1;P2;durP2;ratioP2
21162;SDS011;10739;52.198;20.908;2023-03-08T00:02:08;6.40;;;4.47;;
21162;SDS011;10739;52.198;20.908;2023-03-08T00:04:34;8.88;;;5.35;;
21162;SDS011;10739;52.198;20.908;2023-03-08T00:07:00;7.82;;;4.90;;
21162;SDS011;10739;52.198;20.908;2023-03-08T00:09:27;9.57;;;5.55;;
21162;SDS011;10739;52.198;20.908;2023-03-08T00:11:53;9.10;;;5.47;;
21162;SDS011;10739;52.198;20.908;2023-03-08T00:14:19;9.57;;;5.70;;
21162;SDS011;10739;52.198;20.908;2023-03-08T00:16:47;10.40;;;6.20;;
21162;SDS011;10739;52.198;20.908;2023-03-08T00:19:13;8.63;;;6.30;;
21162;SDS011;10739;52.198;20.908;2023-03-08T00:21:39;10.43;;;6.10;;
21162;SDS011;10739;52.198;20.908;2023-03-08T00:24:06;10.93;;;5.97;;
21162;SDS011;10739;52.198;20.908;2023-03-08T00:26:33;9.65;;;6.45;;
21162;SDS011;10739;52.198;20.908;2023-03-08T00:28:59;9.00;;;5.60;;
21162;SDS011;10739;52.198;20.908;2023-03-08T00:31:25;7.25;;;5.45;;
21162;SDS011;10739;52.198;20.908;2023-03-08T00:33:52;8.40;;;6.28;;
21162;SDS011;10739;52.198;20.908;2023-03-08T00:36:19;10.32;;;6.32;;
21162;SDS011;10739;52.198;20.908;2023-03-08T00:38:47;9.13;;;6.15;;
21162;SDS011;10739;52.198;20.908;2023-03-08T00:41:15;12.35;;;5.63;;
21162;SDS011;10739;52.198;20.908;2023-03-08T00:43:42;7.28;;;5.53;;
21162;SDS011;10739;52.198;20.908;2023-03-08T00:46:09;7.20;;;5.45;;
21162;SDS011;10739;52.198;20.908;2023-03-08T00:48:36;6.53;;;4.97;;
21162;SDS011;10739;52.198;20.908;2023-03-08T00:51:03;8.82;;;4.97;;
21162;SDS011;10739;52.198;20.908;2023-03-08T00:53:29;6.50;;;4.47;;
21162;SDS011;10739;52.198;20.908;2023-03-08T00:55:56;9.30;;;5.30;;
21162;SDS011;10739;52.198;20.908;2023-03-08T00:58:25;11.00;;;4.45;;
21162;SDS011;10739;52.198;20.908;2023-03-08T01:00:54;14.98;;;5.18;;
21162;SDS011;10739;52.198;20.908;2023-03-08T01:03:20;8.85;;;4.65;;
21162;SDS011;10739;52.198;20.908;2023-03-08T01:05:51;11.02;;;4.60;;
21162;SDS011;10739;52.198;20.908;2023-03-08T01:08:21;8.02;;;4.30;;
21162;SDS011;10739;52.198;20.908;2023-03-08T01:10:53;5.80;;;4.35;;
21162;SDS011;10739;52.198;20.908;2023-03-08T01:13:28;8.27;;;5.18;;
21162;SDS011;10739;52.198;20.908;2023-03-08T01:15:58;7.88;;;4.88;;
21162;SDS011;10739;52.198;20.908;2023-03-08T01:18:25;13.13;;;4.85;;
21162;SDS011;10739;52.198;20.908;2023-03-08T01:20:56;7.20;;;5.20;;
21162;SDS011;10739;52.198;20.908;2023-03-08T01:23:27;6.07;;;4.47;;
21162;SDS011;10739;52.198;20.908;2023-03-08T01:25:58;11.77;;;4.93;;
21162;SDS011;10739;52.198;20.908;2023-03-08T01:28:29;9.18;;;4.70;;
21162;SDS011;10739;52.198;20.908;2023-03-08T01:31:03;9.63;;;4.50;;
21162;SDS011;10739;52.198;20.908;2023-03-08T01:33:36;8.25;;;4.30;;
21162;SDS011;10739;52.198;20.908;2023-03-08T01:36:04;5.93;;;4.00;;
21162;SDS011;10739;52.198;20.908;2023-03-08T01:38:33;7.85;;;4.35;;
21162;SDS011;10739;52.198;20.908;2023-03-08T01:41:00;5.60;;;4.20;;
21162;SDS011;10739;52.198;20.908;2023-03-08T01:52:01;9.80;;;5.05;;
21162;SDS011;10739;52.198;20.908;2023-03-08T01:54:38;8.93;;;3.83;;
21162;SDS011;10739;52.198;20.908;2023-03-08T01:57:22;9.93;;;4.45;;
21162;SDS011;10739;52.198;20.908;2023-03-08T02:00:07;9.43;;;3.45;;
21162;SDS011;10739;52.198;20.908;2023-03-08T02:02:48;10.90;;;3.42;;
21162;SDS011;10739;52.198;20.908;2023-03-08T02:05:17;8.35;;;3.58;;
21162;SDS011;10739;52.198;20.908;2023-03-08T02:07:44;6.28;;;3.55;;
21162;SDS011;10739;52.198;20.908;2023-03-08T02:10:11;6.45;;;3.22;;
21162;SDS011;10739;52.198;20.908;2023-03-08T02:12:38;9.27;;;3.30;;
21162;SDS011;10739;52.198;20.908;2023-03-08T02:15:05;7.15;;;2.80;;
21162;SDS011;10739;52.198;20.908;2023-03-08T02:17:36;6.82;;;3.08;;
21162;SDS011;10739;52.198;20.908;2023-03-08T02:22:41;7.65;;;3.30;;
21162;SDS011;10739;52.198;20.908;2023-03-08T02:27:43;12.95;;;2.65;;
21162;SDS011;10739;52.198;20.908;2023-03-08T02:30:11;5.10;;;2.67;;
21162;SDS011;10739;52.198;20.908;2023-03-08T02:32:41;4.03;;;2.50;;
21162;SDS011;10739;52.198;20.908;2023-03-08T02:35:07;13.57;;;5.47;;
21162;SDS011;10739;52.198;20.908;2023-03-08T02:37:35;3.80;;;2.58;;
21162;SDS011;10739;52.198;20.908;2023-03-08T02:40:01;4.93;;;2.72;;
21162;SDS011;10739;52.198;20.908;2023-03-08T02:42:28;7.85;;;2.60;;
21162;SDS011;10739;52.198;20.908;2023-03-08T02:44:54;7.30;;;2.75;;
21162;SDS011;10739;52.198;20.908;2023-03-08T02:47:20;7.97;;;3.05;;
21162;SDS011;10739;52.198;20.908;2023-03-08T02:49:47;5.32;;;3.15;;
21162;SDS011;10739;52.198;20.908;2023-03-08T02:52:13;7.22;;;2.90;;
21162;SDS011;10739;52.198;20.908;2023-03-08T02:54:40;8.82;;;2.90;;
21162;SDS011;10739;52.198;20.908;2023-03-08T02:57:06;3.97;;;2.13;;
21162;SDS011;10739;52.198;20.908;2023-03-08T02:59:32;4.60;;;2.25;;
21162;SDS011;10739;52.198;20.908;2023-03-08T03:01:59;5.45;;;2.00;;
21162;SDS011;10739;52.198;20.908;2023-03-08T03:04:28;5.95;;;2.00;;
21162;SDS011;10739;52.198;20.908;2023-03-08T03:06:58;3.15;;;2.17;;
21162;SDS011;10739;52.198;20.908;2023-03-08T03:09:25;6.20;;;2.30;;
21162;SDS011;10739;52.198;20.908;2023-03-08T03:11:52;5.32;;;2.78;;
21162;SDS011;10739;52.198;20.908;2023-03-08T03:14:20;5.72;;;3.00;;
21162;SDS011;10739;52.198;20.908;2023-03-08T03:16:46;8.38;;;2.65;;
21162;SDS011;10739;52.198;20.908;2023-03-08T03:19:12;6.38;;;2.85;;
21162;SDS011;10739;52.198;20.908;2023-03-08T03:21:39;8.23;;;2.72;;
21162;SDS011;10739;52.198;20.908;2023-03-08T03:24:06;8.27;;;3.38;;
21162;SDS011;10739;52.198;20.908;2023-03-08T03:26:32;4.78;;;3.25;;
21162;SDS011;10739;52.198;20.908;2023-03-08T03:28:59;9.48;;;4.82;;
21162;SDS011;10739;52.198;20.908;2023-03-08T03:31:26;10.98;;;4.93;;
21162;SDS011;10739;52.198;20.908;2023-03-08T03:33:53;9.68;;;5.35;;
21162;SDS011;10739;52.198;20.908;2023-03-08T03:36:20;9.25;;;5.18;;
21162;SDS011;10739;52.198;20.908;2023-03-08T03:38:47;12.82;;;6.43;;
21162;SDS011;10739;52.198;20.908;2023-03-08T03:41:15;10.20;;;5.75;;
21162;SDS011;10739;52.198;20.908;2023-03-08T03:43:46;10.57;;;5.97;;
21162;SDS011;10739;52.198;20.908;2023-03-08T03:46:14;13.27;;;5.80;;
21162;SDS011;10739;52.198;20.908;2023-03-08T03:48:44;9.68;;;5.95;;
21162;SDS011;10739;52.198;20.908;2023-03-08T03:51:15;8.65;;;5.63;;
21162;SDS011;10739;52.198;20.908;2023-03-08T03:53:45;9.02;;;5.97;;
21162;SDS011;10739;52.198;20.908;2023-03-08T03:56:13;10.65;;;5.05;;
21162;SDS011;10739;52.198;20.908;2023-03-08T03:58:51;12.18;;;6.78;;
21162;SDS011;10739;52.198;20.908;2023-03-08T04:01:22;14.13;;;6.28;;
21162;SDS011;10739;52.198;20.908;2023-03-08T04:03:52;12.13;;;6.75;;
21162;SDS011;10739;52.198;20.908;2023-03-08T04:08:56;11.88;;;7.60;;
21162;SDS011;10739;52.198;20.908;2023-03-08T04:11:27;14.10;;;8.20;;
21162;SDS011;10739;52.198;20.908;2023-03-08T04:16:25;12.48;;;8.00;;
21162;SDS011;10739;52.198;20.908;2023-03-08T04:18:55;13.82;;;7.88;;
21162;SDS011;10739;52.198;20.908;2023-03-08T04:21:24;14.50;;;8.73;;
21162;SDS011;10739;52.198;20.908;2023-03-08T04:23:51;13.95;;;7.97;;
21162;SDS011;10739;52.198;20.908;2023-03-08T04:26:18;15.30;;;9.32;;
21162;SDS011;10739;52.198;20.908;2023-03-08T04:28:45;13.88;;;9.10;;
21162;SDS011;10739;52.198;20.908;2023-03-08T04:33:45;15.75;;;9.82;;
21162;SDS011;10739;52.198;20.908;2023-03-08T04:36:13;17.38;;;11.13;;
21162;SDS011;10739;52.198;20.908;2023-03-08T04:38:41;22.52;;;12.40;;
21162;SDS011;10739;52.198;20.908;2023-03-08T04:41:08;17.15;;;11.70;;
21162;SDS011;10739;52.198;20.908;2023-03-08T04:43:51;20.88;;;12.05;;
21162;SDS011;10739;52.198;20.908;2023-03-08T04:46:21;21.05;;;11.80;;
21162;SDS011;10739;52.198;20.908;2023-03-08T04:48:50;19.77;;;13.00;;
21162;SDS011;10739;52.198;20.908;2023-03-08T04:51:20;20.00;;;12.48;;
21162;SDS011;10739;52.198;20.908;2023-03-08T04:53:49;20.20;;;12.18;;
21162;SDS011;10739;52.198;20.908;2023-03-08T04:56:17;22.10;;;13.32;;
21162;SDS011;10739;52.198;20.908;2023-03-08T04:58:44;20.95;;;12.35;;
21162;SDS011;10739;52.198;20.908;2023-03-08T05:01:11;27.13;;;13.55;;
21162;SDS011;10739;52.198;20.908;2023-03-08T05:03:42;23.40;;;13.07;;
21162;SDS011;10739;52.198;20.908;2023-03-08T05:06:09;19.65;;;12.18;;
21162;SDS011;10739;52.198;20.908;2023-03-08T05:08:38;20.00;;;13.35;;
21162;SDS011;10739;52.198;20.908;2023-03-08T05:11:05;19.52;;;12.35;;
21162;SDS011;10739;52.198;20.908;2023-03-08T05:13:33;21.38;;;12.57;;
21162;SDS011;10739;52.198;20.908;2023-03-08T05:16:02;21.52;;;12.80;;
21162;SDS011;10739;52.198;20.908;2023-03-08T05:18:31;18.70;;;13.25;;
21162;SDS011;10739;52.198;20.908;2023-03-08T05:20:59;25.15;;;12.82;;
21162;SDS011;10739;52.198;20.908;2023-03-08T05:23:29;21.65;;;13.82;;
21162;SDS011;10739;52.198;20.908;2023-03-08T05:25:57;20.20;;;12.48;;
21162;SDS011;10739;52.198;20.908;2023-03-08T05:28:26;24.05;;;12.68;;
21162;SDS011;10739;52.198;20.908;2023-03-08T05:31:04;22.95;;;12.90;;
21162;SDS011;10739;52.198;20.908;2023-03-08T05:33:33;19.30;;;12.73;;
21162;SDS011;10739;52.198;20.908;2023-03-08T05:36:01;23.70;;;12.13;;
21162;SDS011;10739;52.198;20.908;2023-03-08T05:38:29;16.38;;;11.68;;
21162;SDS011;10739;52.198;20.908;2023-03-08T05:41:03;25.48;;;12.88;;
21162;SDS011;10739;52.198;20.908;2023-03-08T05:43:33;23.30;;;13.98;;
21162;SDS011;10739;52.198;20.908;2023-03-08T05:46:04;23.55;;;12.63;;
21162;SDS011;10739;52.198;20.908;2023-03-08T05:48:39;20.67;;;13.73;;
21162;SDS011;10739;52.198;20.908;2023-03-08T05:51:07;20.70;;;13.60;;
21162;SDS011;10739;52.198;20.908;2023-03-08T05:53:37;23.15;;;13.30;;
21162;SDS011;10739;52.198;20.908;2023-03-08T05:56:08;21.05;;;12.57;;
21162;SDS011;10739;52.198;20.908;2023-03-08T05:58:43;19.52;;;13.15;;
21162;SDS011;10739;52.198;20.908;2023-03-08T06:01:14;21.33;;;14.32;;
21162;SDS011;10739;52.198;20.908;2023-03-08T06:03:50;19.63;;;13.10;;
21162;SDS011;10739;52.198;20.908;2023-03-08T06:06:19;29.50;;;13.82;;
21162;SDS011;10739;52.198;20.908;2023-03-08T06:08:47;18.77;;;13.02;;
21162;SDS011;10739;52.198;20.908;2023-03-08T06:11:14;20.10;;;12.13;;
21162;SDS011;10739;52.198;20.908;2023-03-08T06:13:41;17.80;;;12.55;;
21162;SDS011;10739;52.198;20.908;2023-03-08T06:16:07;18.23;;;12.50;;
21162;SDS011;10739;52.198;20.908;2023-03-08T06:18:35;21.35;;;11.70;;
21162;SDS011;10739;52.198;20.908;2023-03-08T06:21:05;15.90;;;10.93;;
21162;SDS011;10739;52.198;20.908;2023-03-08T06:23:31;20.20;;;11.90;;
21162;SDS011;10739;52.198;20.908;2023-03-08T06:26:00;17.70;;;10.88;;
21162;SDS011;10739;52.198;20.908;2023-03-08T06:28:27;20.40;;;10.23;;
21162;SDS011;10739;52.198;20.908;2023-03-08T06:30:54;16.95;;;10.55;;
21162;SDS011;10739;52.198;20.908;2023-03-08T06:33:22;17.42;;;10.90;;
21162;SDS011;10739;52.198;20.908;2023-03-08T06:35:57;20.50;;;9.70;;
21162;SDS011;10739;52.198;20.908;2023-03-08T06:38:34;16.98;;;10.52;;
21162;SDS011;10739;52.198;20.908;2023-03-08T06:41:02;13.25;;;8.93;;
21162;SDS011;10739;52.198;20.908;2023-03-08T06:43:31;14.93;;;9.60;;
21162;SDS011;10739;52.198;20.908;2023-03-08T06:46:01;15.70;;;9.05;;
21162;SDS011;10739;52.198;20.908;2023-03-08T06:48:34;16.92;;;9.38;;
21162;SDS011;10739;52.198;20.908;2023-03-08T06:51:01;16.40;;;8.90;;
21162;SDS011;10739;52.198;20.908;2023-03-08T06:53:29;14.30;;;8.82;;
21162;SDS011;10739;52.198;20.908;2023-03-08T06:55:56;12.95;;;8.57;;
21162;SDS011;10739;52.198;20.908;2023-03-08T06:58:22;15.07;;;9.60;;
21162;SDS011;10739;52.198;20.908;2023-03-08T07:00:49;21.30;;;8.65;;
21162;SDS011;10739;52.198;20.908;2023-03-08T07:03:15;15.25;;;8.52;;
21162;SDS011;10739;52.198;20.908;2023-03-08T07:05:41;9.50;;;7.53;;
21162;SDS011;10739;52.198;20.908;2023-03-08T07:08:08;14.45;;;8.73;;
21162;SDS011;10739;52.198;20.908;2023-03-08T07:10:34;13.95;;;8.15;;
21162;SDS011;10739;52.198;20.908;2023-03-08T07:13:01;14.85;;;8.07;;
21162;SDS011;10739;52.198;20.908;2023-03-08T07:15:28;14.60;;;8.00;;
21162;SDS011;10739;52.198;20.908;2023-03-08T07:17:55;15.20;;;8.20;;
21162;SDS011;10739;52.198;20.908;2023-03-08T07:20:23;13.30;;;8.85;;
21162;SDS011;10739;52.198;20.908;2023-03-08T07:22:52;16.90;;;8.07;;
21162;SDS011;10739;52.198;20.908;2023-03-08T07:25:19;12.18;;;7.28;;
21162;SDS011;10739;52.198;20.908;2023-03-08T07:27:46;13.05;;;6.93;;
21162;SDS011;10739;52.198;20.908;2023-03-08T07:30:14;10.18;;;7.18;;
21162;SDS011;10739;52.198;20.908;2023-03-08T07:32:41;13.27;;;7.13;;
21162;SDS011;10739;52.198;20.908;2023-03-08T07:35:08;15.52;;;7.55;;
21162;SDS011;10739;52.198;20.908;2023-03-08T07:37:38;11.25;;;6.55;;
21162;SDS011;10739;52.198;20.908;2023-03-08T07:40:06;11.52;;;6.15;;
21162;SDS011;10739;52.198;20.908;2023-03-08T07:42:35;11.23;;;6.35;;
21162;SDS011;10739;52.198;20.908;2023-03-08T07:45:01;13.25;;;6.90;;
21162;SDS011;10739;52.198;20.908;2023-03-08T07:47:28;8.90;;;6.22;;
21162;SDS011;10739;52.198;20.908;2023-03-08T07:49:54;14.73;;;6.55;;
21162;SDS011;10739;52.198;20.908;2023-03-08T07:52:25;10.45;;;7.05;;
21162;SDS011;10739;52.198;20.908;2023-03-08T07:54:53;9.52;;;6.57;;
21162;SDS011;10739;52.198;20.908;2023-03-08T07:57:20;13.73;;;6.43;;
21162;SDS011;10739;52.198;20.908;2023-03-08T07:59:46;11.55;;;6.75;;
21162;SDS011;10739;52.198;20.908;2023-03-08T08:02:14;12.65;;;6.82;;
21162;SDS011;10739;52.198;20.908;2023-03-08T08:04:41;9.93;;;5.95;;
21162;SDS011;10739;52.198;20.908;2023-03-08T08:07:12;9.68;;;6.45;;
21162;SDS011;10739;52.198;20.908;2023-03-08T08:09:40;15.60;;;6.85;;
21162;SDS011;10739;52.198;20.908;2023-03-08T08:12:07;12.15;;;7.10;;
21162;SDS011;10739;52.198;20.908;2023-03-08T08:14:34;12.20;;;6.93;;
21162;SDS011;10739;52.198;20.908;2023-03-08T08:17:00;13.15;;;7.15;;
21162;SDS011;10739;52.198;20.908;2023-03-08T08:19:27;13.38;;;7.78;;
21162;SDS011;10739;52.198;20.908;2023-03-08T08:21:56;11.88;;;6.95;;
21162;SDS011;10739;52.198;20.908;2023-03-08T08:24:23;9.68;;;6.07;;
21162;SDS011;10739;52.198;20.908;2023-03-08T08:26:49;9.02;;;6.25;;
21162;SDS011;10739;52.198;20.908;2023-03-08T08:29:15;12.77;;;6.45;;
21162;SDS011;10739;52.198;20.908;2023-03-08T08:31:42;11.18;;;5.07;;
21162;SDS011;10739;52.198;20.908;2023-03-08T08:34:08;10.40;;;6.60;;
21162;SDS011;10739;52.198;20.908;2023-03-08T08:36:35;14.68;;;6.80;;
21162;SDS011;10739;52.198;20.908;2023-03-08T08:39:02;11.10;;;5.43;;
21162;SDS011;10739;52.198;20.908;2023-03-08T08:41:28;10.75;;;6.45;;
21162;SDS011;10739;52.198;20.908;2023-03-08T08:43:57;10.80;;;6.10;;
21162;SDS011;10739;52.198;20.908;2023-03-08T08:46:24;13.00;;;6.45;;
21162;SDS011;10739;52.198;20.908;2023-03-08T08:48:53;10.98;;;6.43;;
21162;SDS011;10739;52.198;20.908;2023-03-08T08:51:20;11.68;;;6.20;;
21162;SDS011;10739;52.198;20.908;2023-03-08T08:53:46;11.00;;;5.80;;
21162;SDS011;10739;52.198;20.908;2023-03-08T08:56:14;10.07;;;5.55;;
21162;SDS011;10739;52.198;20.908;2023-03-08T08:58:46;10.18;;;6.13;;
21162;SDS011;10739;52.198;20.908;2023-03-08T09:01:13;9.15;;;5.25;;
21162;SDS011;10739;52.198;20.908;2023-03-08T09:06:13;9.45;;;4.85;;
21162;SDS011;10739;52.198;20.908;2023-03-08T09:08:41;9.40;;;4.88;;
21162;SDS011;10739;52.198;20.908;2023-03-08T09:11:09;13.02;;;4.80;;
21162;SDS011;10739;52.198;20.908;2023-03-08T09:13:36;12.90;;;5.38;;
21162;SDS011;10739;52.198;20.908;2023-03-08T09:16:05;8.43;;;4.85;;
21162;SDS011;10739;52.198;20.908;2023-03-08T09:18:31;10.25;;;4.80;;
21162;SDS011;10739;52.198;20.908;2023-03-08T09:20:59;9.70;;;4.80;;
21162;SDS011;10739;52.198;20.908;2023-03-08T09:23:26;10.65;;;5.32;;
21162;SDS011;10739;52.198;20.908;2023-03-08T09:25:54;9.93;;;5.13;;
21162;SDS011;10739;52.198;20.908;2023-03-08T09:28:22;12.45;;;4.65;;
21162;SDS011;10739;52.198;20.908;2023-03-08T09:30:49;7.75;;;4.63;;
21162;SDS011;10739;52.198;20.908;2023-03-08T09:33:16;6.82;;;4.53;;
21162;SDS011;10739;52.198;20.908;2023-03-08T09:35:42;10.13;;;4.82;;
21162;SDS011;10739;52.198;20.908;2023-03-08T09:38:09;16.65;;;4.93;;
21162;SDS011;10739;52.198;20.908;2023-03-08T09:40:43;5.88;;;3.55;;
21162;SDS011;10739;52.198;20.908;2023-03-08T09:43:42;12.73;;;3.92;;
21162;SDS011;10739;52.198;20.908;2023-03-08T09:46:15;8.48;;;4.13;;
21162;SDS011;10739;52.198;20.908;2023-03-08T09:48:52;8.73;;;4.50;;
21162;SDS011;10739;52.198;20.908;2023-03-08T09:51:26;8.85;;;4.38;;
21162;SDS011;10739;52.198;20.908;2023-03-08T09:54:01;10.82;;;4.32;;
21162;SDS011;10739;52.198;20.908;2023-03-08T09:56:38;11.98;;;4.57;;
21162;SDS011;10739;52.198;20.908;2023-03-08T09:59:31;5.45;;;3.85;;
21162;SDS011;10739;52.198;20.908;2023-03-08T10:07:47;7.93;;;3.53;;
21162;SDS011;10739;52.198;20.908;2023-03-08T10:16:23;8.10;;;4.38;;
21162;SDS011;10739;52.198;20.908;2023-03-08T10:18:58;8.50;;;3.80;;
21162;SDS011;10739;52.198;20.908;2023-03-08T10:21:38;5.72;;;4.15;;
21162;SDS011;10739;52.198;20.908;2023-03-08T10:24:13;12.48;;;4.32;;
21162;SDS011;10739;52.198;20.908;2023-03-08T10:26:53;9.43;;;4.60;;
21162;SDS011;10739;52.198;20.908;2023-03-08T10:30:12;10.85;;;4.80;;
21162;SDS011;10739;52.198;20.908;2023-03-08T10:33:05;8.80;;;4.38;;
21162;SDS011;10739;52.198;20.908;2023-03-08T10:35:37;14.40;;;4.95;;
21162;SDS011;10739;52.198;20.908;2023-03-08T10:38:22;9.43;;;4.03;;
21162;SDS011;10739;52.198;20.908;2023-03-08T10:41:05;8.55;;;4.70;;
21162;SDS011;10739;52.198;20.908;2023-03-08T10:43:38;6.95;;;3.95;;
21162;SDS011;10739;52.198;20.908;2023-03-08T10:46:19;9.73;;;3.60;;
21162;SDS011;10739;52.198;20.908;2023-03-08T10:48:52;7.10;;;3.30;;
21162;SDS011;10739;52.198;20.908;2023-03-08T10:51:26;6.85;;;3.80;;
21162;SDS011;10739;52.198;20.908;2023-03-08T10:53:55;5.53;;;3.13;;
21162;SDS011;10739;52.198;20.908;2023-03-08T10:59:26;10.57;;;3.70;;
21162;SDS011;10739;52.198;20.908;2023-03-08T11:02:01;4.97;;;3.13;;
21162;SDS011;10739;52.198;20.908;2023-03-08T11:04:37;5.65;;;3.17;;
21162;SDS011;10739;52.198;20.908;2023-03-08T11:07:29;9.20;;;3.70;;
21162;SDS011;10739;52.198;20.908;2023-03-08T11:10:16;7.25;;;3.60;;
21162;SDS011;10739;52.198;20.908;2023-03-08T11:12:45;4.45;;;3.53;;
21162;SDS011;10739;52.198;20.908;2023-03-08T11:15:15;5.68;;;3.67;;
21162;SDS011;10739;52.198;20.908;2023-03-08T11:20:41;8.40;;;4.40;;
21162;SDS011;10739;52.198;20.908;2023-03-08T11:23:29;11.30;;;5.20;;
21162;SDS011;10739;52.198;20.908;2023-03-08T11:26:39;5.97;;;4.47;;
21162;SDS011;10739;52.198;20.908;2023-03-08T11:38:29;11.23;;;4.03;;
21162;SDS011;10739;52.198;20.908;2023-03-08T11:41:01;6.90;;;4.10;;
21162;SDS011;10739;52.198;20.908;2023-03-08T11:46:48;6.40;;;4.30;;
21162;SDS011;10739;52.198;20.908;2023-03-08T12:04:41;10.50;;;3.45;;
21162;SDS011;10739;52.198;20.908;2023-03-08T12:07:38;8.45;;;3.97;;
21162;SDS011;10739;52.198;20.908;2023-03-08T12:10:44;5.80;;;4.00;;
21162;SDS011;10739;52.198;20.908;2023-03-08T12:18:55;7.97;;;3.70;;
21162;SDS011;10739;52.198;20.908;2023-03-08T12:26:53;5.22;;;3.53;;
21162;SDS011;10739;52.198;20.908;2023-03-08T12:29:51;6.65;;;3.38;;
21162;SDS011;10739;52.198;20.908;2023-03-08T12:32:42;6.03;;;3.38;;
21162;SDS011;10739;52.198;20.908;2023-03-08T12:38:03;7.55;;;4.10;;
21162;SDS011;10739;52.198;20.908;2023-03-08T12:40:52;5.90;;;3.63;;
21162;SDS011;10739;52.198;20.908;2023-03-08T13:02:31;5.30;;;3.35;;
21162;SDS011;10739;52.198;20.908;2023-03-08T13:19:25;6.57;;;3.38;;
21162;SDS011;10739;52.198;20.908;2023-03-08T13:27:44;5.53;;;3.58;;
21162;SDS011;10739;52.198;20.908;2023-03-08T13:30:31;11.18;;;4.22;;
21162;SDS011;10739;52.198;20.908;2023-03-08T13:33:11;5.97;;;4.18;;
21162;SDS011;10739;52.198;20.908;2023-03-08T13:35:52;13.38;;;4.47;;
21162;SDS011;10739;52.198;20.908;2023-03-08T13:38:34;8.25;;;4.00;;
21162;SDS011;10739;52.198;20.908;2023-03-08T13:41:02;8.57;;;3.90;;
21162;SDS011;10739;52.198;20.908;2023-03-08T13:43:30;7.93;;;4.28;;
21162;SDS011;10739;52.198;20.908;2023-03-08T13:46:00;7.80;;;3.80;;
21162;SDS011;10739;52.198;20.908;2023-03-08T13:48:31;6.57;;;3.85;;
21162;SDS011;10739;52.198;20.908;2023-03-08T13:51:01;7.80;;;4.25;;
21162;SDS011;10739;52.198;20.908;2023-03-08T13:53:29;12.48;;;5.22;;
21162;SDS011;10739;52.198;20.908;2023-03-08T13:56:00;8.13;;;4.72;;
21162;SDS011;10739;52.198;20.908;2023-03-08T13:58:34;8.05;;;4.43;;
21162;SDS011;10739;52.198;20.908;2023-03-08T14:03:43;10.27;;;4.72;;
21162;SDS011;10739;52.198;20.908;2023-03-08T14:09:02;8.52;;;4.70;;
21162;SDS011;10739;52.198;20.908;2023-03-08T14:11:31;7.03;;;4.63;;
21162;SDS011;10739;52.198;20.908;2023-03-08T14:14:05;7.07;;;4.38;;
21162;SDS011;10739;52.198;20.908;2023-03-08T14:17:00;8.57;;;4.63;;
21162;SDS011;10739;52.198;20.908;2023-03-08T14:19:30;10.02;;;4.55;;
21162;SDS011;10739;52.198;20.908;2023-03-08T14:22:07;5.45;;;3.92;;
21162;SDS011;10739;52.198;20.908;2023-03-08T14:24:42;7.50;;;4.07;;
21162;SDS011;10739;52.198;20.908;2023-03-08T14:29:47;7.88;;;4.47;;
21162;SDS011;10739;52.198;20.908;2023-03-08T14:34:41;7.43;;;4.47;;
21162;SDS011;10739;52.198;20.908;2023-03-08T14:39:40;10.57;;;4.80;;
21162;SDS011;10739;52.198;20.908;2023-03-08T14:54:00;8.13;;;4.47;;
21162;SDS011;10739;52.198;20.908;2023-03-08T14:56:33;5.95;;;4.25;;
21162;SDS011;10739;52.198;20.908;2023-03-08T14:58:59;10.90;;;4.90;;
21162;SDS011;10739;52.198;20.908;2023-03-08T15:01:33;8.38;;;5.03;;
21162;SDS011;10739;52.198;20.908;2023-03-08T15:04:02;7.60;;;5.22;;
21162;SDS011;10739;52.198;20.908;2023-03-08T15:06:38;8.95;;;5.38;;
21162;SDS011;10739;52.198;20.908;2023-03-08T15:09:05;11.68;;;5.43;;
21162;SDS011;10739;52.198;20.908;2023-03-08T15:11:33;10.32;;;5.47;;
21162;SDS011;10739;52.198;20.908;2023-03-08T15:14:01;10.45;;;5.00;;
21162;SDS011;10739;52.198;20.908;2023-03-08T15:16:27;10.85;;;5.15;;
21162;SDS011;10739;52.198;20.908;2023-03-08T15:18:53;8.60;;;5.20;;
21162;SDS011;10739;52.198;20.908;2023-03-08T15:21:21;10.73;;;4.95;;
21162;SDS011;10739;52.198;20.908;2023-03-08T15:23:51;9.23;;;5.35;;
21162;SDS011;10739;52.198;20.908;2023-03-08T15:26:22;13.18;;;5.53;;
21162;SDS011;10739;52.198;20.908;2023-03-08T15:28:53;10.50;;;5.55;;
21162;SDS011;10739;52.198;20.908;2023-03-08T15:31:20;9.82;;;5.80;;
21162;SDS011;10739;52.198;20.908;2023-03-08T15:33:46;9.05;;;5.43;;
21162;SDS011;10739;52.198;20.908;2023-03-08T15:36:13;10.75;;;5.72;;
21162;SDS011;10739;52.198;20.908;2023-03-08T15:38:42;10.20;;;5.85;;
21162;SDS011;10739;52.198;20.908;2023-03-08T15:41:13;17.27;;;6.25;;
21162;SDS011;10739;52.198;20.908;2023-03-08T15:43:41;8.35;;;6.18;;
21162;SDS011;10739;52.198;20.908;2023-03-08T15:46:10;8.02;;;5.65;;
21162;SDS011;10739;52.198;20.908;2023-03-08T15:48:38;14.40;;;5.43;;
21162;SDS011;10739;52.198;20.908;2023-03-08T15:51:04;13.48;;;5.32;;
21162;SDS011;10739;52.198;20.908;2023-03-08T15:53:36;11.80;;;5.18;;
21162;SDS011;10739;52.198;20.908;2023-03-08T15:56:02;10.30;;;5.30;;
21162;SDS011;10739;52.198;20.908;2023-03-08T15:58:29;9.60;;;5.03;;
21162;SDS011;10739;52.198;20.908;2023-03-08T16:00:55;7.22;;;4.53;;
21162;SDS011;10739;52.198;20.908;2023-03-08T16:03:21;10.00;;;5.13;;
21162;SDS011;10739;52.198;20.908;2023-03-08T16:05:53;12.02;;;4.90;;
21162;SDS011;10739;52.198;20.908;2023-03-08T16:08:20;12.15;;;5.60;;
21162;SDS011;10739;52.198;20.908;2023-03-08T16:10:50;10.05;;;5.47;;
21162;SDS011;10739;52.198;20.908;2023-03-08T16:13:17;9.18;;;5.30;;
21162;SDS011;10739;52.198;20.908;2023-03-08T16:15:46;11.40;;;5.50;;
21162;SDS011;10739;52.198;20.908;2023-03-08T16:18:13;11.75;;;5.75;;
21162;SDS011;10739;52.198;20.908;2023-03-08T16:20:40;15.88;;;6.07;;
21162;SDS011;10739;52.198;20.908;2023-03-08T16:23:10;10.07;;;5.75;;
21162;SDS011;10739;52.198;20.908;2023-03-08T16:25:37;13.00;;;6.18;;
21162;SDS011;10739;52.198;20.908;2023-03-08T16:28:06;13.00;;;6.60;;
21162;SDS011;10739;52.198;20.908;2023-03-08T16:30:34;10.70;;;6.22;;
21162;SDS011;10739;52.198;20.908;2023-03-08T16:33:00;12.80;;;6.60;;
21162;SDS011;10739;52.198;20.908;2023-03-08T16:35:26;11.57;;;5.53;;
21162;SDS011;10739;52.198;20.908;2023-03-08T16:37:52;12.48;;;6.90;;
21162;SDS011;10739;52.198;20.908;2023-03-08T16:40:19;12.23;;;6.10;;
21162;SDS011;10739;52.198;20.908;2023-03-08T16:42:48;12.82;;;6.63;;
21162;SDS011;10739;52.198;20.908;2023-03-08T16:45:16;10.65;;;5.90;;
21162;SDS011;10739;52.198;20.908;2023-03-08T16:47:42;12.18;;;6.07;;
21162;SDS011;10739;52.198;20.908;2023-03-08T16:50:10;7.97;;;5.72;;
21162;SDS011;10739;52.198;20.908;2023-03-08T16:52:38;11.15;;;5.80;;
21162;SDS011;10739;52.198;20.908;2023-03-08T16:55:04;15.07;;;5.80;;
21162;SDS011;10739;52.198;20.908;2023-03-08T16:57:31;10.35;;;5.57;;
21162;SDS011;10739;52.198;20.908;2023-03-08T16:59:58;11.02;;;5.93;;
21162;SDS011;10739;52.198;20.908;2023-03-08T17:02:24;13.73;;;8.07;;
21162;SDS011;10739;52.198;20.908;2023-03-08T17:04:50;12.63;;;7.13;;
21162;SDS011;10739;52.198;20.908;2023-03-08T17:07:17;12.57;;;7.72;;
21162;SDS011;10739;52.198;20.908;2023-03-08T17:09:43;16.02;;;7.60;;
21162;SDS011;10739;52.198;20.908;2023-03-08T17:12:10;11.23;;;7.95;;